sensor_id;sensor_type;location;lat;lon;timestamp;pressure;altitude;pressure_sealevel;temperature;humidity
5814;BME280;2933;52.302;8.134;2024-01-25T00:02:58;78008.16;;;-148.04;100.00
5814;BME280;2933;52.302;8.134;2024-01-25T00:08:01;78014.13;;;-148.04;100.00
5814;BME280;2933;52.302;8.134;2024-01-25T00:13:03;78014.13;;;-148.04;100.00
5814;BME280;2933;52.302;8.134;2024-01-25T00:18:05;78028.06;;;-148.04;100.00
5814;BME280;2933;52.302;8.134;2024-01-25T00:23:08;78028.06;;;-148.04;100.00
5814;BME280;2933;52.302;8.134;2024-01-25T00:28:09;78020.09;;;-148.04;100.00
5814;BME280;2933;52.302;8.134;2024-01-25T00:33:13;78014.13;;;-148.04;100.00
5814;BME280;2933;52.302;8.134;2024-01-25T00:38:16;78024.06;;;-148.04;100.00
5814;BME280;2933;52.302;8.134;2024-01-25T00:43:18;78032.03;;;-148.04;100.00
5814;BME280;2933;52.302;8.134;2024-01-25T00:48:20;78028.06;;;-148.04;100.00
5814;BME280;2933;52.302;8.134;2024-01-25T00:53:24;78020.09;;;-148.04;100.00
5814;BME280;2933;52.302;8.134;2024-01-25T00:58:26;78034.03;;;-148.04;100.00
5814;BME280;2933;52.302;8.134;2024-01-25T01:03:28;78038.00;;;-148.04;100.00
5814;BME280;2933;52.302;8.134;2024-01-25T01:08:32;78036.00;;;-148.04;100.00
5814;BME280;2933;52.302;8.134;2024-01-25T01:13:34;78047.94;;;-148.04;100.00
5814;BME280;2933;52.302;8.134;2024-01-25T01:18:36;78047.94;;;-148.04;100.00
5814;BME280;2933;52.302;8.134;2024-01-25T01:23:40;78053.91;;;-148.04;100.00
5814;BME280;2933;52.302;8.134;2024-01-25T01:28:41;78061.84;;;-148.04;100.00
5814;BME280;2933;52.302;8.134;2024-01-25T01:33:43;78077.78;;;-148.04;100.00
5814;BME280;2933;52.302;8.134;2024-01-25T01:38:47;78085.72;;;-148.04;100.00
5814;BME280;2933;52.302;8.134;2024-01-25T01:43:52;78093.69;;;-148.04;100.00
5814;BME280;2933;52.302;8.134;2024-01-25T01:48:54;78093.69;;;-148.04;100.00
5814;BME280;2933;52.302;8.134;2024-01-25T01:53:57;78095.66;;;-148.04;100.00
5814;BME280;2933;52.302;8.134;2024-01-25T01:59:00;78109.59;;;-148.04;100.00
5814;BME280;2933;52.302;8.134;2024-01-25T02:04:02;78103.63;;;-148.04;100.00
5814;BME280;2933;52.302;8.134;2024-01-25T02:09:06;78109.59;;;-148.04;100.00
5814;BME280;2933;52.302;8.134;2024-01-25T02:14:08;78111.56;;;-148.04;100.00
5814;BME280;2933;52.302;8.134;2024-01-25T02:19:12;78121.53;;;-148.04;100.00
5814;BME280;2933;52.302;8.134;2024-01-25T02:24:15;78129.47;;;-148.04;100.00
5814;BME280;2933;52.302;8.134;2024-01-25T02:29:16;78139.41;;;-148.04;100.00
5814;BME280;2933;52.302;8.134;2024-01-25T02:34:18;78141.41;;;-148.04;100.00
5814;BME280;2933;52.302;8.134;2024-01-25T02:39:21;78165.28;;;-148.04;100.00
5814;BME280;2933;52.302;8.134;2024-01-25T02:44:23;78157.31;;;-148.04;100.00
5814;BME280;2933;52.302;8.134;2024-01-25T02:49:24;78169.25;;;-148.04;100.00
5814;BME280;2933;52.302;8.134;2024-01-25T02:54:27;78187.16;;;-148.04;100.00
5814;BME280;2933;52.302;8.134;2024-01-25T02:59:29;78179.19;;;-148.04;100.00
5814;BME280;2933;52.302;8.134;2024-01-25T03:04:31;78189.13;;;-148.04;100.00
5814;BME280;2933;52.302;8.134;2024-01-25T03:09:34;78197.09;;;-148.04;100.00
5814;BME280;2933;52.302;8.134;2024-01-25T03:14:35;78205.06;;;-148.04;100.00
5814;BME280;2933;52.302;8.134;2024-01-25T03:19:37;78209.03;;;-148.04;100.00
5814;BME280;2933;52.302;8.134;2024-01-25T03:24:40;78197.09;;;-148.04;100.00
5814;BME280;2933;52.302;8.134;2024-01-25T03:29:42;78211.00;;;-148.04;100.00
5814;BME280;2933;52.302;8.134;2024-01-25T03:34:43;78216.97;;;-148.04;100.00
5814;BME280;2933;52.302;8.134;2024-01-25T03:39:46;78220.97;;;-148.04;100.00
5814;BME280;2933;52.302;8.134;2024-01-25T03:44:48;78236.88;;;-148.04;100.00
5814;BME280;2933;52.302;8.134;2024-01-25T03:49:49;78238.84;;;-148.04;100.00
5814;BME280;2933;52.302;8.134;2024-01-25T03:54:52;78250.78;;;-148.04;100.00
5814;BME280;2933;52.302;8.134;2024-01-25T03:59:54;78250.78;;;-148.04;100.00
5814;BME280;2933;52.302;8.134;2024-01-25T04:04:56;78262.72;;;-148.04;100.00
5814;BME280;2933;52.302;8.134;2024-01-25T04:09:59;78262.72;;;-148.04;100.00
5814;BME280;2933;52.302;8.134;2024-01-25T04:15:00;78280.63;;;-148.04;100.00
5814;BME280;2933;52.302;8.134;2024-01-25T04:20:02;78282.63;;;-148.04;100.00
5814;BME280;2933;52.302;8.134;2024-01-25T04:25:07;78284.59;;;-148.04;100.00
5814;BME280;2933;52.302;8.134;2024-01-25T04:30:09;78290.56;;;-148.04;100.00
5814;BME280;2933;52.302;8.134;2024-01-25T04:35:11;78302.50;;;-148.04;100.00
5814;BME280;2933;52.302;8.134;2024-01-25T04:40:14;78304.50;;;-148.04;100.00
5814;BME280;2933;52.302;8.134;2024-01-25T04:45:15;78306.47;;;-148.04;100.00
5814;BME280;2933;52.302;8.134;2024-01-25T04:50:17;78328.34;;;-148.04;100.00
5814;BME280;2933;52.302;8.134;2024-01-25T04:55:21;78338.31;;;-148.04;100.00
5814;BME280;2933;52.302;8.134;2024-01-25T05:00:22;78344.25;;;-148.04;100.00
5814;BME280;2933;52.302;8.134;2024-01-25T05:05:24;78356.19;;;-148.04;100.00
5814;BME280;2933;52.302;8.134;2024-01-25T05:10:27;78370.13;;;-148.04;100.00
5814;BME280;2933;52.302;8.134;2024-01-25T05:15:29;78380.06;;;-148.04;100.00
5814;BME280;2933;52.302;8.134;2024-01-25T05:20:30;78395.97;;;-148.04;100.00
5814;BME280;2933;52.302;8.134;2024-01-25T05:25:35;78397.97;;;-148.04;100.00
5814;BME280;2933;52.302;8.134;2024-01-25T05:30:37;78397.97;;;-148.04;100.00
5814;BME280;2933;52.302;8.134;2024-01-25T05:35:39;78395.97;;;-148.04;100.00
5814;BME280;2933;52.302;8.134;2024-01-25T05:40:42;78409.91;;;-148.04;100.00
5814;BME280;2933;52.302;8.134;2024-01-25T05:45:44;78419.84;;;-148.04;100.00
5814;BME280;2933;52.302;8.134;2024-01-25T05:50:45;78427.81;;;-148.04;100.00
5814;BME280;2933;52.302;8.134;2024-01-25T05:55:48;78419.84;;;-148.04;100.00
5814;BME280;2933;52.302;8.134;2024-01-25T06:00:50;78419.84;;;-148.04;100.00
5814;BME280;2933;52.302;8.134;2024-01-25T06:05:52;78427.81;;;-148.04;100.00
5814;BME280;2933;52.302;8.134;2024-01-25T06:10:55;78431.78;;;-148.04;100.00
5814;BME280;2933;52.302;8.134;2024-01-25T06:15:56;78455.63;;;-148.04;100.00
5814;BME280;2933;52.302;8.134;2024-01-25T06:20:58;78471.56;;;-148.04;100.00
5814;BME280;2933;52.302;8.134;2024-01-25T06:26:01;78481.50;;;-148.04;100.00
5814;BME280;2933;52.302;8.134;2024-01-25T06:31:03;78475.53;;;-148.04;100.00
5814;BME280;2933;52.302;8.134;2024-01-25T06:36:05;78499.41;;;-148.04;100.00
5814;BME280;2933;52.302;8.134;2024-01-25T06:41:09;78511.34;;;-148.04;100.00
5814;BME280;2933;52.302;8.134;2024-01-25T06:46:10;78521.28;;;-148.04;100.00
5814;BME280;2933;52.302;8.134;2024-01-25T06:51:12;78527.25;;;-148.04;100.00
5814;BME280;2933;52.302;8.134;2024-01-25T06:56:16;78513.31;;;-148.04;100.00
5814;BME280;2933;52.302;8.134;2024-01-25T07:01:20;78529.22;;;-148.04;100.00
5814;BME280;2933;52.302;8.134;2024-01-25T07:06:22;78535.19;;;-148.04;100.00
5814;BME280;2933;52.302;8.134;2024-01-25T07:11:25;78535.19;;;-148.04;100.00
5814;BME280;2933;52.302;8.134;2024-01-25T07:16:26;78551.09;;;-148.04;100.00
5814;BME280;2933;52.302;8.134;2024-01-25T07:21:30;78551.09;;;-148.04;100.00
5814;BME280;2933;52.302;8.134;2024-01-25T07:26:34;78559.06;;;-148.04;100.00
5814;BME280;2933;52.302;8.134;2024-01-25T07:31:36;78569.00;;;-148.04;100.00
5814;BME280;2933;52.302;8.134;2024-01-25T07:36:38;78569.00;;;-148.04;100.00
5814;BME280;2933;52.302;8.134;2024-01-25T07:41:41;78582.94;;;-148.04;100.00
5814;BME280;2933;52.302;8.134;2024-01-25T07:46:43;78582.94;;;-148.04;100.00
5814;BME280;2933;52.302;8.134;2024-01-25T07:51:44;78584.94;;;-148.04;100.00
5814;BME280;2933;52.302;8.134;2024-01-25T07:56:48;78592.88;;;-148.04;100.00
5814;BME280;2933;52.302;8.134;2024-01-25T08:01:50;78600.84;;;-148.04;100.00
5814;BME280;2933;52.302;8.134;2024-01-25T08:06:52;78590.88;;;-148.04;100.00
5814;BME280;2933;52.302;8.134;2024-01-25T08:11:55;78582.94;;;-148.04;100.00
5814;BME280;2933;52.302;8.134;2024-01-25T08:16:56;78584.94;;;-148.04;100.00
5814;BME280;2933;52.302;8.134;2024-01-25T08:21:58;78588.91;;;-148.04;100.00
5814;BME280;2933;52.302;8.134;2024-01-25T08:27:01;78586.91;;;-148.04;100.00
5814;BME280;2933;52.302;8.134;2024-01-25T08:32:03;78576.97;;;-148.04;100.00
5814;BME280;2933;52.302;8.134;2024-01-25T08:37:05;78578.97;;;-148.04;100.00
5814;BME280;2933;52.302;8.134;2024-01-25T08:42:08;78555.09;;;-148.04;100.00
5814;BME280;2933;52.302;8.134;2024-01-25T08:47:10;78555.09;;;-148.04;100.00
5814;BME280;2933;52.302;8.134;2024-01-25T08:52:12;78557.06;;;-148.04;100.00
5814;BME280;2933;52.302;8.134;2024-01-25T08:57:17;78557.06;;;-148.04;100.00
5814;BME280;2933;52.302;8.134;2024-01-25T09:02:18;78541.16;;;-148.04;100.00
5814;BME280;2933;52.302;8.134;2024-01-25T09:07:22;78541.16;;;-148.04;100.00
5814;BME280;2933;52.302;8.134;2024-01-25T09:12:25;78551.09;;;-148.04;100.00
5814;BME280;2933;52.302;8.134;2024-01-25T09:17:27;78561.06;;;-148.04;100.00
5814;BME280;2933;52.302;8.134;2024-01-25T09:22:28;78543.16;;;-148.04;100.00
5814;BME280;2933;52.302;8.134;2024-01-25T09:27:31;78535.19;;;-148.04;100.00
5814;BME280;2933;52.302;8.134;2024-01-25T09:32:33;78531.22;;;-148.04;100.00
5814;BME280;2933;52.302;8.134;2024-01-25T09:37:35;78523.25;;;-148.04;100.00
5814;BME280;2933;52.302;8.134;2024-01-25T09:42:38;78513.31;;;-148.04;100.00
5814;BME280;2933;52.302;8.134;2024-01-25T09:47:40;78503.38;;;-148.04;100.00
5814;BME280;2933;52.302;8.134;2024-01-25T09:52:43;78479.50;;;-148.04;100.00
5814;BME280;2933;52.302;8.134;2024-01-25T09:57:48;78481.50;;;-148.04;100.00
5814;BME280;2933;52.302;8.134;2024-01-25T10:02:54;78493.44;;;-148.04;100.00
5814;BME280;2933;52.302;8.134;2024-01-25T10:07:57;78491.44;;;-148.04;100.00
5814;BME280;2933;52.302;8.134;2024-01-25T10:13:02;78479.50;;;-148.04;100.00
5814;BME280;2933;52.302;8.134;2024-01-25T10:18:05;78477.53;;;-148.04;100.00
5814;BME280;2933;52.302;8.134;2024-01-25T10:23:13;78475.53;;;-148.04;100.00
5814;BME280;2933;52.302;8.134;2024-01-25T10:28:16;78469.56;;;-148.04;100.00
5814;BME280;2933;52.302;8.134;2024-01-25T10:33:19;78457.63;;;-148.04;100.00
5814;BME280;2933;52.302;8.134;2024-01-25T10:38:21;78441.72;;;-148.04;100.00
5814;BME280;2933;52.302;8.134;2024-01-25T10:43:24;78433.75;;;-148.04;100.00
5814;BME280;2933;52.302;8.134;2024-01-25T10:48:26;78425.81;;;-148.04;100.00
5814;BME280;2933;52.302;8.134;2024-01-25T10:53:29;78427.81;;;-148.04;100.00
5814;BME280;2933;52.302;8.134;2024-01-25T10:58:34;78415.88;;;-148.04;100.00
5814;BME280;2933;52.302;8.134;2024-01-25T11:03:36;78397.97;;;-148.04;100.00
5814;BME280;2933;52.302;8.134;2024-01-25T11:08:38;78388.03;;;-148.04;100.00
5814;BME280;2933;52.302;8.134;2024-01-25T11:13:42;78364.16;;;-148.04;100.00
5814;BME280;2933;52.302;8.134;2024-01-25T11:18:48;78346.25;;;-148.04;100.00
5814;BME280;2933;52.302;8.134;2024-01-25T11:23:59;78336.31;;;-148.04;100.00
5814;BME280;2933;52.302;8.134;2024-01-25T11:29:03;78354.22;;;-148.04;100.00
5814;BME280;2933;52.302;8.134;2024-01-25T11:34:04;78352.22;;;-148.04;100.00
5814;BME280;2933;52.302;8.134;2024-01-25T11:39:06;78328.34;;;-148.04;100.00
5814;BME280;2933;52.302;8.134;2024-01-25T11:44:12;78312.44;;;-148.04;100.00
5814;BME280;2933;52.302;8.134;2024-01-25T11:49:14;78308.47;;;-148.04;100.00
5814;BME280;2933;52.302;8.134;2024-01-25T11:54:16;78288.56;;;-148.04;100.00
5814;BME280;2933;52.302;8.134;2024-01-25T11:59:19;78284.59;;;-148.04;100.00
5814;BME280;2933;52.302;8.134;2024-01-25T12:04:21;78250.78;;;-148.04;100.00
5814;BME280;2933;52.302;8.134;2024-01-25T12:09:22;78254.78;;;-148.04;100.00
5814;BME280;2933;52.302;8.134;2024-01-25T12:14:25;78274.66;;;-148.04;100.00
5814;BME280;2933;52.302;8.134;2024-01-25T12:19:28;78260.72;;;-148.04;100.00
5814;BME280;2933;52.302;8.134;2024-01-25T12:24:31;78258.75;;;-148.04;100.00
5814;BME280;2933;52.302;8.134;2024-01-25T12:29:34;78256.75;;;-148.04;100.00
5814;BME280;2933;52.302;8.134;2024-01-25T12:34:35;78248.81;;;-148.04;100.00
5814;BME280;2933;52.302;8.134;2024-01-25T12:39:39;78238.84;;;-148.04;100.00
5814;BME280;2933;52.302;8.134;2024-01-25T12:44:42;78254.78;;;-148.04;100.00
5814;BME280;2933;52.302;8.134;2024-01-25T12:49:44;78246.81;;;-148.04;100.00
5814;BME280;2933;52.302;8.134;2024-01-25T12:54:45;78238.84;;;-148.04;100.00
5814;BME280;2933;52.302;8.134;2024-01-25T12:59:48;78230.91;;;-148.04;100.00
5814;BME280;2933;52.302;8.134;2024-01-25T13:04:50;78240.84;;;-148.04;100.00
5814;BME280;2933;52.302;8.134;2024-01-25T13:09:52;78244.81;;;-148.04;100.00
5814;BME280;2933;52.302;8.134;2024-01-25T13:14:55;78236.88;;;-148.04;100.00
5814;BME280;2933;52.302;8.134;2024-01-25T13:19:57;78222.94;;;-148.04;100.00
5814;BME280;2933;52.302;8.134;2024-01-25T13:24:59;78222.94;;;-148.04;100.00
5814;BME280;2933;52.302;8.134;2024-01-25T13:30:02;78224.94;;;-148.04;100.00
5814;BME280;2933;52.302;8.134;2024-01-25T13:35:05;78244.81;;;-148.04;100.00
5814;BME280;2933;52.302;8.134;2024-01-25T13:40:08;78256.75;;;-148.04;100.00
5814;BME280;2933;52.302;8.134;2024-01-25T13:45:11;78266.69;;;-148.04;100.00
5814;BME280;2933;52.302;8.134;2024-01-25T13:50:12;78262.72;;;-148.04;100.00
5814;BME280;2933;52.302;8.134;2024-01-25T13:55:14;78254.78;;;-148.04;100.00
5814;BME280;2933;52.302;8.134;2024-01-25T14:00:18;78268.69;;;-148.04;100.00
5814;BME280;2933;52.302;8.134;2024-01-25T14:05:21;78246.81;;;-148.04;100.00
5814;BME280;2933;52.302;8.134;2024-01-25T14:10:22;78236.88;;;-148.04;100.00
5814;BME280;2933;52.302;8.134;2024-01-25T14:15:25;78211.00;;;-148.04;100.00
5814;BME280;2933;52.302;8.134;2024-01-25T14:20:27;78209.03;;;-148.04;100.00
5814;BME280;2933;52.302;8.134;2024-01-25T14:25:28;78216.97;;;-148.04;100.00
5814;BME280;2933;52.302;8.134;2024-01-25T14:30:31;78232.91;;;-148.04;100.00
5814;BME280;2933;52.302;8.134;2024-01-25T14:35:33;78238.84;;;-148.04;100.00
5814;BME280;2933;52.302;8.134;2024-01-25T14:40:35;78240.84;;;-148.04;100.00
5814;BME280;2933;52.302;8.134;2024-01-25T14:45:38;78252.78;;;-148.04;100.00
5814;BME280;2933;52.302;8.134;2024-01-25T14:50:39;78266.69;;;-148.04;100.00
5814;BME280;2933;52.302;8.134;2024-01-25T14:55:41;78264.72;;;-148.04;100.00
5814;BME280;2933;52.302;8.134;2024-01-25T15:00:44;78270.69;;;-148.04;100.00
5814;BME280;2933;52.302;8.134;2024-01-25T15:05:45;78276.66;;;-148.04;100.00
5814;BME280;2933;52.302;8.134;2024-01-25T15:10:47;78270.69;;;-148.04;100.00
5814;BME280;2933;52.302;8.134;2024-01-25T15:15:50;78286.59;;;-148.04;100.00
5814;BME280;2933;52.302;8.134;2024-01-25T15:20:52;78304.50;;;-148.04;100.00
5814;BME280;2933;52.302;8.134;2024-01-25T15:25:54;78312.44;;;-148.04;100.00
5814;BME280;2933;52.302;8.134;2024-01-25T15:30:57;78328.34;;;-148.04;100.00
5814;BME280;2933;52.302;8.134;2024-01-25T15:35:59;78332.34;;;-148.04;100.00
5814;BME280;2933;52.302;8.134;2024-01-25T15:41:00;78342.28;;;-148.04;100.00
5814;BME280;2933;52.302;8.134;2024-01-25T15:46:03;78366.13;;;-148.04;100.00
5814;BME280;2933;52.302;8.134;2024-01-25T15:51:05;78395.97;;;-148.04;100.00
5814;BME280;2933;52.302;8.134;2024-01-25T15:56:07;78405.91;;;-148.04;100.00
5814;BME280;2933;52.302;8.134;2024-01-25T16:01:10;78427.81;;;-148.04;100.00
5814;BME280;2933;52.302;8.134;2024-01-25T16:06:11;78429.78;;;-148.04;100.00
5814;BME280;2933;52.302;8.134;2024-01-25T16:11:13;78447.69;;;-148.04;100.00
5814;BME280;2933;52.302;8.134;2024-01-25T16:16:16;78455.63;;;-148.04;100.00
5814;BME280;2933;52.302;8.134;2024-01-25T16:21:18;78455.63;;;-148.04;100.00
5814;BME280;2933;52.302;8.134;2024-01-25T16:26:20;78489.44;;;-148.04;100.00
5814;BME280;2933;52.302;8.134;2024-01-25T16:31:23;78499.41;;;-148.04;100.00
5814;BME280;2933;52.302;8.134;2024-01-25T16:36:24;78505.38;;;-148.04;100.00
5814;BME280;2933;52.302;8.134;2024-01-25T16:41:26;78513.31;;;-148.04;100.00
5814;BME280;2933;52.302;8.134;2024-01-25T16:46:29;78539.19;;;-148.04;100.00
5814;BME280;2933;52.302;8.134;2024-01-25T16:51:31;78547.13;;;-148.04;100.00
5814;BME280;2933;52.302;8.134;2024-01-25T16:56:33;78531.22;;;-148.04;100.00
5814;BME280;2933;52.302;8.134;2024-01-25T17:01:36;78529.22;;;-148.04;100.00
5814;BME280;2933;52.302;8.134;2024-01-25T17:06:37;78543.16;;;-148.04;100.00
5814;BME280;2933;52.302;8.134;2024-01-25T17:11:41;78527.25;;;-148.04;100.00
5814;BME280;2933;52.302;8.134;2024-01-25T17:16:45;78525.25;;;-148.04;100.00
5814;BME280;2933;52.302;8.134;2024-01-25T17:21:47;78521.28;;;-148.04;100.00
5814;BME280;2933;52.302;8.134;2024-01-25T17:26:48;78513.31;;;-148.04;100.00
5814;BME280;2933;52.302;8.134;2024-01-25T17:31:51;78475.53;;;-148.04;100.00
5814;BME280;2933;52.302;8.134;2024-01-25T17:36:53;78447.69;;;-148.04;100.00
5814;BME280;2933;52.302;8.134;2024-01-25T17:41:54;78435.75;;;-148.04;100.00
5814;BME280;2933;52.302;8.134;2024-01-25T17:46:57;78417.84;;;-148.04;100.00
5814;BME280;2933;52.302;8.134;2024-01-25T17:51:59;78397.97;;;-148.04;100.00
5814;BME280;2933;52.302;8.134;2024-01-25T17:57:00;78380.06;;;-148.04;100.00
5814;BME280;2933;52.302;8.134;2024-01-25T18:02:03;78374.09;;;-148.04;100.00
5814;BME280;2933;52.302;8.134;2024-01-25T18:07:06;78384.03;;;-148.04;100.00
5814;BME280;2933;52.302;8.134;2024-01-25T18:12:08;78388.03;;;-148.04;100.00
5814;BME280;2933;52.302;8.134;2024-01-25T18:17:11;78370.13;;;-148.04;100.00
5814;BME280;2933;52.302;8.134;2024-01-25T18:22:13;78352.22;;;-148.04;100.00
5814;BME280;2933;52.302;8.134;2024-01-25T18:27:16;78326.38;;;-148.04;100.00
5814;BME280;2933;52.302;8.134;2024-01-25T18:32:19;78322.38;;;-148.04;100.00
5814;BME280;2933;52.302;8.134;2024-01-25T18:37:21;78312.44;;;-148.04;100.00
5814;BME280;2933;52.302;8.134;2024-01-25T18:42:23;78304.50;;;-148.04;100.00
5814;BME280;2933;52.302;8.134;2024-01-25T18:47:26;78278.63;;;-148.04;100.00
5814;BME280;2933;52.302;8.134;2024-01-25T18:52:27;78268.69;;;-148.04;100.00
5814;BME280;2933;52.302;8.134;2024-01-25T18:57:29;78268.69;;;-148.04;100.00
5814;BME280;2933;52.302;8.134;2024-01-25T19:02:34;78264.72;;;-148.04;100.00
5814;BME280;2933;52.302;8.134;2024-01-25T19:07:37;78254.78;;;-148.04;100.00
5814;BME280;2933;52.302;8.134;2024-01-25T19:12:39;78256.75;;;-148.04;100.00
5814;BME280;2933;52.302;8.134;2024-01-25T19:17:42;78260.72;;;-148.04;100.00
5814;BME280;2933;52.302;8.134;2024-01-25T19:22:45;78248.81;;;-148.04;100.00
5814;BME280;2933;52.302;8.134;2024-01-25T19:27:47;78232.91;;;-148.04;100.00
5814;BME280;2933;52.302;8.134;2024-01-25T19:32:50;78228.91;;;-148.04;100.00
5814;BME280;2933;52.302;8.134;2024-01-25T19:37:51;78224.94;;;-148.04;100.00
5814;BME280;2933;52.302;8.134;2024-01-25T19:42:53;78220.97;;;-148.04;100.00
5814;BME280;2933;52.302;8.134;2024-01-25T19:47:56;78234.88;;;-148.04;100.00
5814;BME280;2933;52.302;8.134;2024-01-25T19:52:58;78232.91;;;-148.04;100.00
5814;BME280;2933;52.302;8.134;2024-01-25T19:58:00;78222.94;;;-148.04;100.00
5814;BME280;2933;52.302;8.134;2024-01-25T20:03:04;78238.84;;;-148.04;100.00
5814;BME280;2933;52.302;8.134;2024-01-25T20:08:06;78222.94;;;-148.04;100.00
5814;BME280;2933;52.302;8.134;2024-01-25T20:13:08;78218.97;;;-148.04;100.00
5814;BME280;2933;52.302;8.134;2024-01-25T20:18:11;78209.03;;;-148.04;100.00
5814;BME280;2933;52.302;8.134;2024-01-25T20:23:13;78191.13;;;-148.04;100.00
5814;BME280;2933;52.302;8.134;2024-01-25T20:28:14;78187.16;;;-148.04;100.00
5814;BME280;2933;52.302;8.134;2024-01-25T20:33:17;78179.19;;;-148.04;100.00
5814;BME280;2933;52.302;8.134;2024-01-25T20:38:19;78193.13;;;-148.04;100.00
5814;BME280;2933;52.302;8.134;2024-01-25T20:43:20;78191.13;;;-148.04;100.00
5814;BME280;2933;52.302;8.134;2024-01-25T20:48:23;78197.09;;;-148.04;100.00
5814;BME280;2933;52.302;8.134;2024-01-25T20:53:25;78191.13;;;-148.04;100.00
5814;BME280;2933;52.302;8.134;2024-01-25T20:58:27;78191.13;;;-148.04;100.00
5814;BME280;2933;52.302;8.134;2024-01-25T21:03:30;78181.19;;;-148.04;100.00
5814;BME280;2933;52.302;8.134;2024-01-25T21:08:32;78169.25;;;-148.04;100.00
5814;BME280;2933;52.302;8.134;2024-01-25T21:13:34;78165.28;;;-148.04;100.00
5814;BME280;2933;52.302;8.134;2024-01-25T21:18:37;78157.31;;;-148.04;100.00
5814;BME280;2933;52.302;8.134;2024-01-25T21:23:39;78157.31;;;-148.04;100.00
5814;BME280;2933;52.302;8.134;2024-01-25T21:28:41;78145.38;;;-148.04;100.00
5814;BME280;2933;52.302;8.134;2024-01-25T21:33:45;78137.44;;;-148.04;100.00
5814;BME280;2933;52.302;8.134;2024-01-25T21:38:48;78135.44;;;-148.04;100.00
5814;BME280;2933;52.302;8.134;2024-01-25T21:43:49;78129.47;;;-148.04;100.00
5814;BME280;2933;52.302;8.134;2024-01-25T21:48:52;78131.47;;;-148.04;100.00
5814;BME280;2933;52.302;8.134;2024-01-25T21:53:54;78127.50;;;-148.04;100.00
5814;BME280;2933;52.302;8.134;2024-01-25T21:58:55;78111.56;;;-148.04;100.00
5814;BME280;2933;52.302;8.134;2024-01-25T22:03:58;78113.56;;;-148.04;100.00
5814;BME280;2933;52.302;8.134;2024-01-25T22:09:00;78099.66;;;-148.04;100.00
5814;BME280;2933;52.302;8.134;2024-01-25T22:14:01;78109.59;;;-148.04;100.00
5814;BME280;2933;52.302;8.134;2024-01-25T22:19:04;78101.63;;;-148.04;100.00
5814;BME280;2933;52.302;8.134;2024-01-25T22:24:07;78103.63;;;-148.04;100.00
5814;BME280;2933;52.302;8.134;2024-01-25T22:29:08;78097.66;;;-148.04;100.00
5814;BME280;2933;52.302;8.134;2024-01-25T22:34:11;78091.69;;;-148.04;100.00
5814;BME280;2933;52.302;8.134;2024-01-25T22:39:13;78095.66;;;-148.04;100.00
5814;BME280;2933;52.302;8.134;2024-01-25T22:44:15;78089.69;;;-148.04;100.00
5814;BME280;2933;52.302;8.134;2024-01-25T22:49:18;78081.75;;;-148.04;100.00
5814;BME280;2933;52.302;8.134;2024-01-25T22:54:20;78079.75;;;-148.04;100.00
5814;BME280;2933;52.302;8.134;2024-01-25T22:59:21;78069.81;;;-148.04;100.00
5814;BME280;2933;52.302;8.134;2024-01-25T23:04:24;78077.78;;;-148.04;100.00
5814;BME280;2933;52.302;8.134;2024-01-25T23:09:26;78067.81;;;-148.04;100.00
5814;BME280;2933;52.302;8.134;2024-01-25T23:14:27;78069.81;;;-148.04;100.00
5814;BME280;2933;52.302;8.134;2024-01-25T23:19:30;78059.88;;;-148.04;100.00
5814;BME280;2933;52.302;8.134;2024-01-25T23:24:32;78065.84;;;-148.04;100.00
5814;BME280;2933;52.302;8.134;2024-01-25T23:29:34;78057.88;;;-148.04;100.00
5814;BME280;2933;52.302;8.134;2024-01-25T23:34:37;78069.81;;;-148.04;100.00
5814;BME280;2933;52.302;8.134;2024-01-25T23:39:38;78069.81;;;-148.04;100.00
5814;BME280;2933;52.302;8.134;2024-01-25T23:44:40;78063.84;;;-148.04;100.00
5814;BME280;2933;52.302;8.134;2024-01-25T23:49:43;78063.84;;;-148.04;100.00
5814;BME280;2933;52.302;8.134;2024-01-25T23:54:45;78061.84;;;-148.04;100.00
5814;BME280;2933;52.302;8.134;2024-01-25T23:59:47;78047.94;;;-148.04;100.00
